sensor_id;sensor_type;location;lat;lon;timestamp;pressure;altitude;pressure_sealevel;temperature;humidity
48606;BME280;8482;54.396;18.590;2023-06-22T00:06:38;101478.34;;;20.96;70.75
48606;BME280;8482;54.396;18.590;2023-06-22T00:09:28;101481.53;;;20.91;70.85
48606;BME280;8482;54.396;18.590;2023-06-22T00:11:56;101466.25;;;20.84;70.98
48606;BME280;8482;54.396;18.590;2023-06-22T00:14:22;101490.66;;;20.90;70.97
48606;BME280;8482;54.396;18.590;2023-06-22T00:16:48;101466.09;;;20.77;70.90
48606;BME280;8482;54.396;18.590;2023-06-22T00:19:17;101486.63;;;20.86;71.24
48606;BME280;8482;54.396;18.590;2023-06-22T00:21:57;101458.81;;;20.69;71.36
48606;BME280;8482;54.396;18.590;2023-06-22T00:24:28;101463.53;;;20.67;71.38
48606;BME280;8482;54.396;18.590;2023-06-22T00:27:01;101466.38;;;20.65;71.32
48606;BME280;8482;54.396;18.590;2023-06-22T00:29:37;101480.22;;;20.71;71.77
48606;BME280;8482;54.396;18.590;2023-06-22T00:32:13;101490.81;;;20.72;71.86
48606;BME280;8482;54.396;18.590;2023-06-22T00:34:42;101485.44;;;20.64;71.75
48606;BME280;8482;54.396;18.590;2023-06-22T00:37:13;101470.44;;;20.53;71.91
48606;BME280;8482;54.396;18.590;2023-06-22T00:39:47;101478.88;;;20.58;72.03
48606;BME280;8482;54.396;18.590;2023-06-22T00:42:16;101467.75;;;20.53;72.11
48606;BME280;8482;54.396;18.590;2023-06-22T00:44:57;101463.56;;;20.50;72.08
48606;BME280;8482;54.396;18.590;2023-06-22T00:47:25;101465.56;;;20.48;72.02
48606;BME280;8482;54.396;18.590;2023-06-22T00:53:08;101492.19;;;20.51;72.37
48606;BME280;8482;54.396;18.590;2023-06-22T00:55:42;101472.31;;;20.36;72.46
48606;BME280;8482;54.396;18.590;2023-06-22T00:58:21;101475.03;;;20.28;73.05
48606;BME280;8482;54.396;18.590;2023-06-22T01:01:02;101500.44;;;20.33;73.03
48606;BME280;8482;54.396;18.590;2023-06-22T01:04:12;101493.53;;;20.23;73.38
48606;BME280;8482;54.396;18.590;2023-06-22T01:07:13;101481.72;;;20.07;73.74
48606;BME280;8482;54.396;18.590;2023-06-22T01:10:28;101506.81;;;20.16;74.14
48606;BME280;8482;54.396;18.590;2023-06-22T01:13:41;101504.81;;;20.10;74.47
48606;BME280;8482;54.396;18.590;2023-06-22T01:17:02;101489.28;;;19.95;74.69
48606;BME280;8482;54.396;18.590;2023-06-22T01:19:51;101496.19;;;20.06;74.79
48606;BME280;8482;54.396;18.590;2023-06-22T01:22:33;101486.44;;;19.97;74.87
48606;BME280;8482;54.396;18.590;2023-06-22T01:25:31;101476.34;;;19.90;75.46
48606;BME280;8482;54.396;18.590;2023-06-22T01:28:37;101471.88;;;19.81;75.39
48606;BME280;8482;54.396;18.590;2023-06-22T01:31:20;101471.56;;;19.76;75.82
48606;BME280;8482;54.396;18.590;2023-06-22T01:34:04;101491.72;;;19.80;75.93
48606;BME280;8482;54.396;18.590;2023-06-22T01:36:46;101493.91;;;19.76;76.30
48606;BME280;8482;54.396;18.590;2023-06-22T01:39:28;101485.34;;;19.73;76.28
48606;BME280;8482;54.396;18.590;2023-06-22T01:42:06;101493.91;;;19.76;76.37
48606;BME280;8482;54.396;18.590;2023-06-22T01:44:38;101485.50;;;19.71;76.69
48606;BME280;8482;54.396;18.590;2023-06-22T01:47:29;101494.78;;;19.77;76.71
48606;BME280;8482;54.396;18.590;2023-06-22T01:50:05;101477.06;;;19.66;76.77
48606;BME280;8482;54.396;18.590;2023-06-22T01:52:41;101486.63;;;19.60;76.92
48606;BME280;8482;54.396;18.590;2023-06-22T01:55:13;101489.47;;;19.59;77.22
48606;BME280;8482;54.396;18.590;2023-06-22T01:57:49;101490.97;;;19.53;77.49
48606;BME280;8482;54.396;18.590;2023-06-22T02:00:38;101486.56;;;19.44;77.58
48606;BME280;8482;54.396;18.590;2023-06-22T02:03:16;101505.78;;;19.49;77.73
48606;BME280;8482;54.396;18.590;2023-06-22T02:06:01;101499.41;;;19.50;78.26
48606;BME280;8482;54.396;18.590;2023-06-22T02:08:45;101481.00;;;19.37;77.92
48606;BME280;8482;54.396;18.590;2023-06-22T02:11:31;101489.38;;;19.34;78.37
48606;BME280;8482;54.396;18.590;2023-06-22T02:14:29;101497.50;;;19.42;78.60
48606;BME280;8482;54.396;18.590;2023-06-22T02:20:05;101493.56;;;19.28;78.86
48606;BME280;8482;54.396;18.590;2023-06-22T02:22:33;101500.00;;;19.36;78.75
48606;BME280;8482;54.396;18.590;2023-06-22T02:25:09;101492.34;;;19.23;79.45
48606;BME280;8482;54.396;18.590;2023-06-22T02:27:48;101523.34;;;19.35;79.32
48606;BME280;8482;54.396;18.590;2023-06-22T02:30:32;101504.78;;;19.16;79.93
48606;BME280;8482;54.396;18.590;2023-06-22T02:33:06;101513.34;;;19.19;80.13
48606;BME280;8482;54.396;18.590;2023-06-22T02:35:32;101531.06;;;19.30;80.24
48606;BME280;8482;54.396;18.590;2023-06-22T02:38:07;101526.13;;;19.17;80.31
48606;BME280;8482;54.396;18.590;2023-06-22T02:40:47;101519.22;;;19.14;80.49
48606;BME280;8482;54.396;18.590;2023-06-22T02:46:09;101528.81;;;19.17;81.00
48606;BME280;8482;54.396;18.590;2023-06-22T02:48:50;101541.25;;;19.18;81.29
48606;BME280;8482;54.396;18.590;2023-06-22T02:51:18;101532.59;;;19.06;81.72
48606;BME280;8482;54.396;18.590;2023-06-22T02:56:42;101543.72;;;19.11;81.95
48606;BME280;8482;54.396;18.590;2023-06-22T02:59:29;101554.00;;;19.16;82.03
48606;BME280;8482;54.396;18.590;2023-06-22T03:02:05;101547.91;;;19.06;82.34
48606;BME280;8482;54.396;18.590;2023-06-22T03:04:54;101552.31;;;19.15;82.19
48606;BME280;8482;54.396;18.590;2023-06-22T03:07:23;101530.75;;;19.07;82.32
48606;BME280;8482;54.396;18.590;2023-06-22T03:09:59;101549.31;;;19.18;82.36
48606;BME280;8482;54.396;18.590;2023-06-22T03:13:00;101552.69;;;19.20;82.55
48606;BME280;8482;54.396;18.590;2023-06-22T03:15:33;101563.94;;;19.16;82.59
48606;BME280;8482;54.396;18.590;2023-06-22T03:18:35;101538.53;;;19.10;82.64
48606;BME280;8482;54.396;18.590;2023-06-22T03:21:21;101560.38;;;19.15;82.60
48606;BME280;8482;54.396;18.590;2023-06-22T03:23:55;101583.00;;;19.30;82.71
48606;BME280;8482;54.396;18.590;2023-06-22T03:26:53;101576.59;;;19.23;82.70
48606;BME280;8482;54.396;18.590;2023-06-22T03:29:26;101564.28;;;19.21;82.61
48606;BME280;8482;54.396;18.590;2023-06-22T03:32:01;101568.84;;;19.20;82.47
48606;BME280;8482;54.396;18.590;2023-06-22T03:34:51;101571.69;;;19.19;82.38
48606;BME280;8482;54.396;18.590;2023-06-22T03:37:50;101601.44;;;19.43;81.79
48606;BME280;8482;54.396;18.590;2023-06-22T03:40:19;101588.56;;;19.29;81.81
48606;BME280;8482;54.396;18.590;2023-06-22T03:42:50;101581.00;;;19.33;81.98
48606;BME280;8482;54.396;18.590;2023-06-22T03:45:21;101595.50;;;19.40;81.88
48606;BME280;8482;54.396;18.590;2023-06-22T03:48:03;101588.78;;;19.36;81.92
48606;BME280;8482;54.396;18.590;2023-06-22T03:50:46;101601.88;;;19.39;81.62
48606;BME280;8482;54.396;18.590;2023-06-22T03:53:12;101603.13;;;19.44;81.35
48606;BME280;8482;54.396;18.590;2023-06-22T03:56:01;101605.94;;;19.43;81.21
48606;BME280;8482;54.396;18.590;2023-06-22T03:58:44;101599.41;;;19.45;80.89
48606;BME280;8482;54.396;18.590;2023-06-22T04:01:30;101624.88;;;19.59;80.72
48606;BME280;8482;54.396;18.590;2023-06-22T04:04:26;101624.25;;;19.66;80.04
48606;BME280;8482;54.396;18.590;2023-06-22T04:07:26;101623.19;;;19.58;80.28
48606;BME280;8482;54.396;18.590;2023-06-22T04:09:53;101614.44;;;19.56;79.90
48606;BME280;8482;54.396;18.590;2023-06-22T04:12:19;101637.38;;;19.69;79.50
48606;BME280;8482;54.396;18.590;2023-06-22T04:14:45;101633.97;;;19.58;79.79
48606;BME280;8482;54.396;18.590;2023-06-22T04:17:21;101634.69;;;19.69;79.03
48606;BME280;8482;54.396;18.590;2023-06-22T04:19:56;101658.03;;;19.86;78.44
48606;BME280;8482;54.396;18.590;2023-06-22T04:22:22;101652.66;;;19.86;78.35
48606;BME280;8482;54.396;18.590;2023-06-22T04:24:48;101645.41;;;19.87;78.63
48606;BME280;8482;54.396;18.590;2023-06-22T04:27:15;101624.84;;;19.86;78.26
48606;BME280;8482;54.396;18.590;2023-06-22T04:29:41;101640.22;;;19.94;77.95
48606;BME280;8482;54.396;18.590;2023-06-22T04:32:15;101629.94;;;19.89;77.85
48606;BME280;8482;54.396;18.590;2023-06-22T04:34:42;101647.34;;;20.03;77.37
48606;BME280;8482;54.396;18.590;2023-06-22T04:37:08;101637.91;;;19.99;77.12
48606;BME280;8482;54.396;18.590;2023-06-22T04:39:34;101639.59;;;20.00;76.98
48606;BME280;8482;54.396;18.590;2023-06-22T04:42:01;101650.94;;;20.20;75.86
48606;BME280;8482;54.396;18.590;2023-06-22T04:44:27;101645.03;;;20.16;75.56
48606;BME280;8482;54.396;18.590;2023-06-22T04:46:58;101653.28;;;20.15;75.36
48606;BME280;8482;54.396;18.590;2023-06-22T04:49:30;101657.16;;;20.20;75.63
48606;BME280;8482;54.396;18.590;2023-06-22T04:52:03;101665.78;;;20.24;75.27
48606;BME280;8482;54.396;18.590;2023-06-22T04:54:30;101666.44;;;20.26;75.26
48606;BME280;8482;54.396;18.590;2023-06-22T04:57:04;101653.81;;;20.27;75.07
48606;BME280;8482;54.396;18.590;2023-06-22T04:59:31;101659.72;;;20.30;74.98
48606;BME280;8482;54.396;18.590;2023-06-22T05:02:00;101668.31;;;20.34;74.00
48606;BME280;8482;54.396;18.590;2023-06-22T05:04:28;101652.81;;;20.28;74.32
48606;BME280;8482;54.396;18.590;2023-06-22T05:06:58;101650.63;;;20.31;74.37
48606;BME280;8482;54.396;18.590;2023-06-22T05:09:24;101648.97;;;20.39;73.76
48606;BME280;8482;54.396;18.590;2023-06-22T05:11:51;101648.13;;;20.46;73.47
48606;BME280;8482;54.396;18.590;2023-06-22T05:17:40;101633.84;;;20.46;71.96
48606;BME280;8482;54.396;18.590;2023-06-22T05:20:12;101638.22;;;20.47;71.69
48606;BME280;8482;54.396;18.590;2023-06-22T05:22:40;101634.03;;;20.44;72.11
48606;BME280;8482;54.396;18.590;2023-06-22T05:25:10;101659.63;;;20.57;71.68
48606;BME280;8482;54.396;18.590;2023-06-22T05:27:44;101629.47;;;20.53;70.86
48606;BME280;8482;54.396;18.590;2023-06-22T05:30:20;101632.50;;;20.58;70.15
48606;BME280;8482;54.396;18.590;2023-06-22T05:32:54;101636.91;;;20.59;69.96
48606;BME280;8482;54.396;18.590;2023-06-22T05:35:20;101650.22;;;20.69;69.41
48606;BME280;8482;54.396;18.590;2023-06-22T05:37:46;101636.72;;;20.61;69.31
48606;BME280;8482;54.396;18.590;2023-06-22T05:40:14;101662.53;;;20.72;68.38
48606;BME280;8482;54.396;18.590;2023-06-22T05:42:43;101647.69;;;20.59;67.10
48606;BME280;8482;54.396;18.590;2023-06-22T05:45:14;101675.50;;;20.68;67.25
48606;BME280;8482;54.396;18.590;2023-06-22T05:47:43;101638.56;;;20.52;67.35
48606;BME280;8482;54.396;18.590;2023-06-22T05:50:32;101637.72;;;20.51;66.96
48606;BME280;8482;54.396;18.590;2023-06-22T05:53:04;101664.53;;;20.61;66.60
48606;BME280;8482;54.396;18.590;2023-06-22T05:55:32;101651.75;;;20.63;66.50
48606;BME280;8482;54.396;18.590;2023-06-22T05:58:01;101664.19;;;20.64;66.41
48606;BME280;8482;54.396;18.590;2023-06-22T06:00:39;101658.13;;;20.71;65.11
48606;BME280;8482;54.396;18.590;2023-06-22T06:03:07;101676.91;;;20.80;64.21
48606;BME280;8482;54.396;18.590;2023-06-22T06:05:40;101673.13;;;20.73;64.27
48606;BME280;8482;54.396;18.590;2023-06-22T06:08:07;101682.28;;;20.80;64.04
48606;BME280;8482;54.396;18.590;2023-06-22T06:10:36;101690.06;;;20.84;63.70
48606;BME280;8482;54.396;18.590;2023-06-22T06:13:11;101686.00;;;20.79;63.26
48606;BME280;8482;54.396;18.590;2023-06-22T06:15:39;101684.81;;;20.82;62.80
48606;BME280;8482;54.396;18.590;2023-06-22T06:18:11;101699.16;;;20.82;63.49
48606;BME280;8482;54.396;18.590;2023-06-22T06:20:37;101699.97;;;20.83;63.93
48606;BME280;8482;54.396;18.590;2023-06-22T06:23:03;101690.06;;;20.84;63.96
48606;BME280;8482;54.396;18.590;2023-06-22T06:25:29;101689.38;;;20.81;63.63
48606;BME280;8482;54.396;18.590;2023-06-22T06:28:00;101687.34;;;20.84;63.54
48606;BME280;8482;54.396;18.590;2023-06-22T06:33:32;101691.75;;;20.93;63.73
48606;BME280;8482;54.396;18.590;2023-06-22T06:35:58;101685.47;;;20.92;63.41
48606;BME280;8482;54.396;18.590;2023-06-22T06:38:27;101656.00;;;20.82;62.96
48606;BME280;8482;54.396;18.590;2023-06-22T06:40:58;101667.13;;;20.88;62.98
48606;BME280;8482;54.396;18.590;2023-06-22T06:43:24;101683.31;;;20.96;62.67
48606;BME280;8482;54.396;18.590;2023-06-22T06:45:51;101680.44;;;20.97;63.32
48606;BME280;8482;54.396;18.590;2023-06-22T06:48:17;101673.03;;;21.00;63.02
48606;BME280;8482;54.396;18.590;2023-06-22T06:50:43;101687.19;;;21.02;62.77
48606;BME280;8482;54.396;18.590;2023-06-22T06:53:10;101687.03;;;21.03;62.75
48606;BME280;8482;54.396;18.590;2023-06-22T06:55:36;101689.06;;;21.09;61.92
48606;BME280;8482;54.396;18.590;2023-06-22T06:58:04;101693.63;;;21.17;61.08
48606;BME280;8482;54.396;18.590;2023-06-22T07:00:35;101689.22;;;21.16;61.10
48606;BME280;8482;54.396;18.590;2023-06-22T07:03:09;101690.38;;;21.13;59.47
48606;BME280;8482;54.396;18.590;2023-06-22T07:08:47;101699.50;;;21.21;59.13
48606;BME280;8482;54.396;18.590;2023-06-22T07:11:13;101694.63;;;21.16;59.03
48606;BME280;8482;54.396;18.590;2023-06-22T07:13:39;101706.25;;;21.33;58.42
48606;BME280;8482;54.396;18.590;2023-06-22T07:16:05;101691.06;;;21.32;56.74
48606;BME280;8482;54.396;18.590;2023-06-22T07:18:31;101678.56;;;21.39;56.14
48606;BME280;8482;54.396;18.590;2023-06-22T07:20:59;101690.06;;;21.50;55.93
48606;BME280;8482;54.396;18.590;2023-06-22T07:23:30;101697.13;;;21.59;55.70
48606;BME280;8482;54.396;18.590;2023-06-22T07:26:01;101703.72;;;21.65;55.34
48606;BME280;8482;54.396;18.590;2023-06-22T07:28:28;101694.56;;;21.57;55.04
48606;BME280;8482;54.396;18.590;2023-06-22T07:30:57;101682.44;;;21.53;54.43
48606;BME280;8482;54.396;18.590;2023-06-22T07:33:23;101708.25;;;21.72;54.25
48606;BME280;8482;54.396;18.590;2023-06-22T07:35:49;101709.63;;;21.77;52.79
48606;BME280;8482;54.396;18.590;2023-06-22T07:38:16;101722.59;;;21.81;52.99
48606;BME280;8482;54.396;18.590;2023-06-22T07:40:42;101711.09;;;21.87;52.90
48606;BME280;8482;54.396;18.590;2023-06-22T07:43:09;101718.84;;;21.91;53.37
48606;BME280;8482;54.396;18.590;2023-06-22T07:45:35;101713.59;;;21.97;53.53
48606;BME280;8482;54.396;18.590;2023-06-22T07:48:04;101706.50;;;21.96;53.11
48606;BME280;8482;54.396;18.590;2023-06-22T07:50:37;101705.84;;;21.94;52.90
48606;BME280;8482;54.396;18.590;2023-06-22T07:53:03;101719.63;;;22.16;52.42
48606;BME280;8482;54.396;18.590;2023-06-22T07:55:29;101726.47;;;22.27;52.18
48606;BME280;8482;54.396;18.590;2023-06-22T07:57:54;101721.06;;;22.35;51.90
48606;BME280;8482;54.396;18.590;2023-06-22T08:00:20;101720.84;;;22.45;52.02
48606;BME280;8482;54.396;18.590;2023-06-22T08:02:50;101733.16;;;22.56;51.97
48606;BME280;8482;54.396;18.590;2023-06-22T08:05:16;101739.00;;;22.68;51.92
48606;BME280;8482;54.396;18.590;2023-06-22T08:07:43;101738.47;;;22.72;51.83
48606;BME280;8482;54.396;18.590;2023-06-22T08:10:12;101738.25;;;22.82;51.41
48606;BME280;8482;54.396;18.590;2023-06-22T08:12:42;101731.75;;;22.91;50.24
48606;BME280;8482;54.396;18.590;2023-06-22T08:15:08;101728.31;;;22.98;50.70
48606;BME280;8482;54.396;18.590;2023-06-22T08:17:37;101738.09;;;23.07;50.65
48606;BME280;8482;54.396;18.590;2023-06-22T08:20:04;101733.81;;;23.13;50.55
48606;BME280;8482;54.396;18.590;2023-06-22T08:22:40;101736.16;;;23.16;50.80
48606;BME280;8482;54.396;18.590;2023-06-22T18:52:34;101561.19;;;23.98;52.40
48606;BME280;8482;54.396;18.590;2023-06-22T18:55:05;101566.19;;;23.86;52.72
48606;BME280;8482;54.396;18.590;2023-06-22T18:57:36;101570.25;;;23.75;53.03
48606;BME280;8482;54.396;18.590;2023-06-22T19:00:07;101561.56;;;23.65;53.42
48606;BME280;8482;54.396;18.590;2023-06-22T19:02:59;101561.22;;;23.53;53.99
48606;BME280;8482;54.396;18.590;2023-06-22T19:05:40;101565.44;;;23.40;54.27
48606;BME280;8482;54.396;18.590;2023-06-22T19:08:08;101563.00;;;23.31;54.51
48606;BME280;8482;54.396;18.590;2023-06-22T19:10:42;101569.69;;;23.20;54.97
48606;BME280;8482;54.396;18.590;2023-06-22T19:13:19;101574.72;;;23.08;55.21
48606;BME280;8482;54.396;18.590;2023-06-22T19:15:59;101580.38;;;22.98;55.62
48606;BME280;8482;54.396;18.590;2023-06-22T19:21:11;101583.41;;;22.80;56.30
48606;BME280;8482;54.396;18.590;2023-06-22T19:23:43;101582.81;;;22.70;56.62
48606;BME280;8482;54.396;18.590;2023-06-22T19:26:17;101571.41;;;22.59;57.03
48606;BME280;8482;54.396;18.590;2023-06-22T19:28:49;101575.00;;;22.52;57.37
48606;BME280;8482;54.396;18.590;2023-06-22T19:31:20;101568.66;;;22.44;57.62
48606;BME280;8482;54.396;18.590;2023-06-22T19:33:54;101565.31;;;22.34;57.83
48606;BME280;8482;54.396;18.590;2023-06-22T19:36:31;101567.16;;;22.33;58.07
48606;BME280;8482;54.396;18.590;2023-06-22T19:39:02;101562.31;;;22.29;58.45
48606;BME280;8482;54.396;18.590;2023-06-22T19:41:29;101558.66;;;22.22;58.74
48606;BME280;8482;54.396;18.590;2023-06-22T19:43:56;101559.16;;;22.17;58.90
48606;BME280;8482;54.396;18.590;2023-06-22T19:46:30;101548.59;;;22.07;59.09
48606;BME280;8482;54.396;18.590;2023-06-22T19:48:57;101536.66;;;22.01;59.27
48606;BME280;8482;54.396;18.590;2023-06-22T19:51:33;101543.41;;;21.97;59.63
48606;BME280;8482;54.396;18.590;2023-06-22T19:54:07;101535.53;;;21.87;59.81
48606;BME280;8482;54.396;18.590;2023-06-22T19:56:35;101526.63;;;21.79;60.01
48606;BME280;8482;54.396;18.590;2023-06-22T19:59:13;101533.75;;;21.71;60.10
48606;BME280;8482;54.396;18.590;2023-06-22T20:01:42;101524.03;;;21.62;60.59
48606;BME280;8482;54.396;18.590;2023-06-22T20:04:09;101514.56;;;21.58;60.97
48606;BME280;8482;54.396;18.590;2023-06-22T20:06:35;101503.13;;;21.48;60.93
48606;BME280;8482;54.396;18.590;2023-06-22T20:09:03;101527.44;;;21.48;61.47
48606;BME280;8482;54.396;18.590;2023-06-22T20:11:34;101533.34;;;21.43;61.66
48606;BME280;8482;54.396;18.590;2023-06-22T20:14:03;101535.53;;;21.39;61.81
48606;BME280;8482;54.396;18.590;2023-06-22T20:16:30;101532.69;;;21.33;62.08
48606;BME280;8482;54.396;18.590;2023-06-22T20:19:12;101535.09;;;21.27;62.39
48606;BME280;8482;54.396;18.590;2023-06-22T20:21:41;101536.25;;;21.25;62.75
48606;BME280;8482;54.396;18.590;2023-06-22T20:24:10;101529.53;;;21.21;62.78
48606;BME280;8482;54.396;18.590;2023-06-22T20:26:42;101542.00;;;21.22;62.71
48606;BME280;8482;54.396;18.590;2023-06-22T20:29:28;101549.97;;;21.15;62.70
48606;BME280;8482;54.396;18.590;2023-06-22T20:32:08;101546.91;;;21.10;63.30
48606;BME280;8482;54.396;18.590;2023-06-22T20:34:45;101532.44;;;21.03;63.40
48606;BME280;8482;54.396;18.590;2023-06-22T20:39:41;101525.72;;;20.90;63.39
48606;BME280;8482;54.396;18.590;2023-06-22T20:42:09;101530.44;;;20.88;63.54
48606;BME280;8482;54.396;18.590;2023-06-22T20:44:38;101528.91;;;20.86;63.76
48606;BME280;8482;54.396;18.590;2023-06-22T20:47:04;101535.00;;;20.79;64.18
48606;BME280;8482;54.396;18.590;2023-06-22T20:49:30;101535.50;;;20.75;64.25
48606;BME280;8482;54.396;18.590;2023-06-22T20:51:56;101533.44;;;20.68;64.36
48606;BME280;8482;54.396;18.590;2023-06-22T20:54:23;101533.78;;;20.65;64.54
48606;BME280;8482;54.396;18.590;2023-06-22T20:56:49;101537.00;;;20.61;64.83
48606;BME280;8482;54.396;18.590;2023-06-22T20:59:15;101541.88;;;20.57;64.93
48606;BME280;8482;54.396;18.590;2023-06-22T21:01:42;101532.44;;;20.53;65.09
48606;BME280;8482;54.396;18.590;2023-06-22T21:04:12;101520.66;;;20.46;64.94
48606;BME280;8482;54.396;18.590;2023-06-22T21:06:38;101527.88;;;20.45;65.18
48606;BME280;8482;54.396;18.590;2023-06-22T21:09:04;101530.25;;;20.40;65.34
48606;BME280;8482;54.396;18.590;2023-06-22T21:11:30;101533.97;;;20.39;65.35
48606;BME280;8482;54.396;18.590;2023-06-22T21:13:56;101521.00;;;20.34;65.39
48606;BME280;8482;54.396;18.590;2023-06-22T21:16:22;101523.34;;;20.29;65.89
48606;BME280;8482;54.396;18.590;2023-06-22T21:18:48;101510.00;;;20.19;65.60
48606;BME280;8482;54.396;18.590;2023-06-22T21:21:14;101512.88;;;20.18;65.81
48606;BME280;8482;54.396;18.590;2023-06-22T21:23:40;101505.63;;;20.10;66.12
48606;BME280;8482;54.396;18.590;2023-06-22T21:26:05;101514.03;;;20.07;66.33
48606;BME280;8482;54.396;18.590;2023-06-22T21:28:31;101505.78;;;20.00;66.58
48606;BME280;8482;54.396;18.590;2023-06-22T21:30:58;101510.34;;;20.00;66.60
48606;BME280;8482;54.396;18.590;2023-06-22T21:33:24;101500.22;;;19.94;66.59
48606;BME280;8482;54.396;18.590;2023-06-22T21:35:50;101495.00;;;19.92;67.06
48606;BME280;8482;54.396;18.590;2023-06-22T21:38:15;101498.88;;;19.89;66.96
48606;BME280;8482;54.396;18.590;2023-06-22T21:40:41;101494.78;;;19.85;66.95
48606;BME280;8482;54.396;18.590;2023-06-22T21:43:07;101499.19;;;19.86;67.09
48606;BME280;8482;54.396;18.590;2023-06-22T21:45:33;101494.97;;;19.84;66.97
48606;BME280;8482;54.396;18.590;2023-06-22T21:47:59;101495.28;;;19.81;67.07
48606;BME280;8482;54.396;18.590;2023-06-22T21:50:25;101492.72;;;19.79;67.04
48606;BME280;8482;54.396;18.590;2023-06-22T21:52:51;101476.56;;;19.71;67.10
48606;BME280;8482;54.396;18.590;2023-06-22T21:55:17;101481.28;;;19.69;67.17
48606;BME280;8482;54.396;18.590;2023-06-22T21:57:42;101491.22;;;19.68;67.04
48606;BME280;8482;54.396;18.590;2023-06-22T22:00:09;101487.47;;;19.61;67.53
48606;BME280;8482;54.396;18.590;2023-06-22T22:02:37;101496.72;;;19.58;67.51
48606;BME280;8482;54.396;18.590;2023-06-22T22:05:04;101502.59;;;19.54;67.62
48606;BME280;8482;54.396;18.590;2023-06-22T22:07:30;101497.69;;;19.49;67.64
48606;BME280;8482;54.396;18.590;2023-06-22T22:09:59;101487.75;;;19.41;67.97
48606;BME280;8482;54.396;18.590;2023-06-22T22:12:24;101490.25;;;19.43;68.05
48606;BME280;8482;54.396;18.590;2023-06-22T22:14:50;101487.88;;;19.40;68.21
48606;BME280;8482;54.396;18.590;2023-06-22T22:17:16;101497.13;;;19.37;68.51
48606;BME280;8482;54.396;18.590;2023-06-22T22:19:42;101491.06;;;19.35;68.59
48606;BME280;8482;54.396;18.590;2023-06-22T22:22:08;101496.44;;;19.35;68.52
48606;BME280;8482;54.396;18.590;2023-06-22T22:24:34;101493.94;;;19.34;68.44
48606;BME280;8482;54.396;18.590;2023-06-22T22:27:00;101496.94;;;19.30;68.84
48606;BME280;8482;54.396;18.590;2023-06-22T22:29:26;101492.88;;;19.26;68.72
48606;BME280;8482;54.396;18.590;2023-06-22T22:31:55;101501.91;;;19.17;68.63
48606;BME280;8482;54.396;18.590;2023-06-22T22:34:21;101503.22;;;19.13;68.80
48606;BME280;8482;54.396;18.590;2023-06-22T22:36:47;101514.16;;;19.11;68.93
48606;BME280;8482;54.396;18.590;2023-06-22T22:39:38;101510.09;;;19.07;69.15
48606;BME280;8482;54.396;18.590;2023-06-22T22:42:06;101513.25;;;19.03;69.31
48606;BME280;8482;54.396;18.590;2023-06-22T22:44:32;101502.16;;;18.97;69.52
48606;BME280;8482;54.396;18.590;2023-06-22T22:46:58;101502.47;;;18.94;69.50
48606;BME280;8482;54.396;18.590;2023-06-22T22:49:24;101506.84;;;18.95;69.56
48606;BME280;8482;54.396;18.590;2023-06-22T22:51:51;101508.97;;;18.92;69.70
48606;BME280;8482;54.396;18.590;2023-06-22T22:54:16;101504.38;;;18.84;69.81
48606;BME280;8482;54.396;18.590;2023-06-22T22:56:46;101528.22;;;18.87;69.83
48606;BME280;8482;54.396;18.590;2023-06-22T22:59:12;101519.66;;;18.83;70.08
48606;BME280;8482;54.396;18.590;2023-06-22T23:01:38;101530.25;;;18.85;70.11
48606;BME280;8482;54.396;18.590;2023-06-22T23:04:05;101514.91;;;18.77;70.23
48606;BME280;8482;54.396;18.590;2023-06-22T23:06:31;101521.50;;;18.83;70.41
48606;BME280;8482;54.396;18.590;2023-06-22T23:08:57;101531.56;;;18.81;70.27
48606;BME280;8482;54.396;18.590;2023-06-22T23:11:25;101533.41;;;18.80;69.96
48606;BME280;8482;54.396;18.590;2023-06-22T23:13:56;101531.03;;;18.77;69.84
48606;BME280;8482;54.396;18.590;2023-06-22T23:16:28;101537.41;;;18.76;70.16
48606;BME280;8482;54.396;18.590;2023-06-22T23:18:55;101544.78;;;18.74;70.10
48606;BME280;8482;54.396;18.590;2023-06-22T23:21:21;101535.19;;;18.72;70.36
48606;BME280;8482;54.396;18.590;2023-06-22T23:23:47;101535.19;;;18.72;70.23
48606;BME280;8482;54.396;18.590;2023-06-22T23:26:13;101528.81;;;18.73;70.28
48606;BME280;8482;54.396;18.590;2023-06-22T23:28:42;101504.94;;;18.69;70.44
48606;BME280;8482;54.396;18.590;2023-06-22T23:31:08;101495.19;;;18.68;70.58
48606;BME280;8482;54.396;18.590;2023-06-22T23:33:35;101473.19;;;18.65;70.37
48606;BME280;8482;54.396;18.590;2023-06-22T23:36:04;101480.53;;;18.63;70.49
48606;BME280;8482;54.396;18.590;2023-06-22T23:38:30;101485.38;;;18.59;70.45
48606;BME280;8482;54.396;18.590;2023-06-22T23:40:57;101490.38;;;18.54;70.59
48606;BME280;8482;54.396;18.590;2023-06-22T23:43:23;101481.81;;;18.50;70.64
48606;BME280;8482;54.396;18.590;2023-06-22T23:45:50;101481.41;;;18.45;70.94
48606;BME280;8482;54.396;18.590;2023-06-22T23:48:16;101485.09;;;18.44;71.33
48606;BME280;8482;54.396;18.590;2023-06-22T23:50:42;101467.00;;;18.28;70.99
48606;BME280;8482;54.396;18.590;2023-06-22T23:53:08;101493.78;;;18.38;71.17
48606;BME280;8482;54.396;18.590;2023-06-22T23:55:38;101484.34;;;18.34;71.34
48606;BME280;8482;54.396;18.590;2023-06-22T23:58:04;101475.59;;;18.32;71.51
